createdAt,value
2018-01-21T00:02:19.410Z,21.88
2018-01-21T00:04:46.909Z,20.63
2018-01-21T00:07:14.384Z,16.63
2018-01-21T00:09:42.054Z,19.30
2018-01-21T00:12:09.507Z,17.08
2018-01-21T00:14:39.426Z,16.37
2018-01-21T00:17:06.918Z,21.02
2018-01-21T00:19:37.418Z,20.05
2018-01-21T00:22:04.870Z,17.80
2018-01-21T00:24:32.976Z,15.93
2018-01-21T00:27:00.517Z,22.57
2018-01-21T00:29:28.026Z,18.73
2018-01-21T00:31:55.589Z,14.87
2018-01-21T00:34:23.236Z,14.98
2018-01-21T00:36:50.634Z,22.20
2018-01-21T00:39:18.164Z,22.63
2018-01-21T00:41:46.718Z,21.30
2018-01-21T00:44:14.193Z,24.07
2018-01-21T00:46:41.654Z,22.67
2018-01-21T00:49:09.152Z,21.00
2018-01-21T00:51:36.588Z,18.70
2018-01-21T00:54:04.050Z,46.70
2018-01-21T00:56:31.522Z,18.47
2018-01-21T00:58:59.016Z,32.97
2018-01-21T01:01:26.536Z,22.37
2018-01-21T01:03:53.979Z,18.73
2018-01-21T01:06:24.925Z,23.70
2018-01-21T01:08:52.389Z,23.15
2018-01-21T01:11:19.864Z,21.77
2018-01-21T01:13:47.325Z,21.83
2018-01-21T01:16:14.796Z,23.20
2018-01-21T01:18:42.448Z,21.97
2018-01-21T01:21:13.920Z,23.90
2018-01-21T01:23:41.393Z,23.97
2018-01-21T01:26:09.818Z,23.58
2018-01-21T01:28:37.293Z,24.83
2018-01-21T01:31:04.797Z,25.00
2018-01-21T01:33:32.364Z,21.60
2018-01-21T01:35:59.828Z,23.90
2018-01-21T01:38:28.210Z,21.73
2018-01-21T01:40:55.677Z,28.20
2018-01-21T01:43:23.154Z,29.13
2018-01-21T01:45:50.611Z,23.60
2018-01-21T01:48:18.080Z,31.00
2018-01-21T01:50:49.925Z,26.55
2018-01-21T01:53:17.681Z,28.54
2018-01-21T01:55:45.185Z,31.52
2018-01-21T01:58:12.668Z,32.13
2018-01-21T02:00:40.116Z,28.30
2018-01-21T02:03:07.613Z,27.40
2018-01-21T02:05:35.069Z,28.37
2018-01-21T02:08:02.524Z,27.97
2018-01-21T02:10:29.984Z,28.90
2018-01-21T02:12:57.469Z,29.45
2018-01-21T02:15:26.937Z,29.80
2018-01-21T02:17:56.842Z,30.37
2018-01-21T02:20:24.497Z,34.77
2018-01-21T02:22:51.975Z,31.17
2018-01-21T02:25:19.757Z,31.97
2018-01-21T02:27:47.238Z,37.53
2018-01-21T02:30:15.632Z,34.20
2018-01-21T02:32:43.092Z,28.60
2018-01-21T02:35:10.616Z,25.73
2018-01-21T02:37:38.049Z,29.87
2018-01-21T02:40:05.487Z,33.55
2018-01-21T02:42:32.953Z,31.23
2018-01-21T02:45:00.409Z,27.47
2018-01-21T02:47:30.288Z,24.50
2018-01-21T02:49:57.765Z,24.85
2018-01-21T02:52:25.244Z,28.63
2018-01-21T02:54:52.692Z,21.70
2018-01-21T02:57:20.133Z,20.67
2018-01-21T02:59:47.624Z,18.52
2018-01-21T03:02:15.128Z,20.40
2018-01-21T03:04:43.162Z,19.12
2018-01-21T03:07:10.601Z,19.97
2018-01-21T03:09:38.092Z,15.40
2018-01-21T03:12:05.572Z,17.90
2018-01-21T03:14:33.029Z,10.53
2018-01-21T03:17:00.560Z,13.80
2018-01-21T03:19:28.006Z,14.47
2018-01-21T03:22:01.176Z,15.95
2018-01-21T03:24:28.639Z,12.37
2018-01-21T03:26:56.116Z,12.77
2018-01-21T03:29:23.612Z,13.57
2018-01-21T03:31:52.528Z,13.32
2018-01-21T03:34:20.013Z,12.77
2018-01-21T03:36:47.489Z,12.23
2018-01-21T03:39:14.943Z,11.57
2018-01-21T03:41:42.418Z,6.30
2018-01-21T03:44:09.888Z,10.73
2018-01-21T03:46:37.395Z,9.67
2018-01-21T03:49:05.648Z,8.77
2018-01-21T03:51:33.108Z,9.40
2018-01-21T03:54:00.581Z,10.35
2018-01-21T03:56:28.040Z,11.48
2018-01-21T03:58:56.696Z,11.37
2018-01-21T04:01:24.496Z,10.77
2018-01-21T04:03:51.931Z,13.53
2018-01-21T04:06:19.407Z,13.60
2018-01-21T04:08:46.863Z,14.67
2018-01-21T04:11:14.320Z,16.17
2018-01-21T04:13:41.792Z,19.33
2018-01-21T04:16:09.241Z,17.10
2018-01-21T04:18:36.836Z,14.52
2018-01-21T04:21:04.465Z,20.17
2018-01-21T04:23:37.720Z,14.00
2018-01-21T04:26:05.189Z,15.57
2018-01-21T04:28:32.923Z,15.48
2018-01-21T04:31:00.364Z,14.27
2018-01-21T04:33:27.835Z,16.07
2018-01-21T04:35:55.284Z,16.33
2018-01-21T04:38:26.552Z,10.73
2018-01-21T04:40:54.002Z,14.80
2018-01-21T04:43:21.456Z,13.53
2018-01-21T04:45:48.929Z,14.38
2018-01-21T04:48:16.839Z,16.72
2018-01-21T04:50:44.324Z,14.43
2018-01-21T04:53:11.776Z,10.40
2018-01-21T04:55:39.216Z,11.40
2018-01-21T04:58:07.049Z,11.12
2018-01-21T05:00:34.518Z,11.85
2018-01-21T05:03:01.967Z,13.40
2018-01-21T05:05:29.449Z,11.10
2018-01-21T05:07:56.880Z,9.20
2018-01-21T05:10:25.261Z,13.45
2018-01-21T05:12:52.724Z,9.70
2018-01-21T05:15:20.218Z,13.63
2018-01-21T05:17:47.665Z,9.77
2018-01-21T05:20:15.100Z,9.20
2018-01-21T05:22:42.596Z,10.87
2018-01-21T05:25:10.284Z,12.37
2018-01-21T05:27:38.652Z,9.70
2018-01-21T05:30:06.120Z,8.25
2018-01-21T05:32:33.564Z,10.10
2018-01-21T05:35:01.047Z,10.60
2018-01-21T05:37:28.640Z,7.83
2018-01-21T05:39:59.871Z,8.02
2018-01-21T05:42:28.377Z,12.52
2018-01-21T05:44:55.818Z,8.80
2018-01-21T05:47:23.309Z,8.37
2018-01-21T05:49:50.773Z,8.20
2018-01-21T05:52:18.223Z,10.25
2018-01-21T05:54:49.013Z,10.20
2018-01-21T05:57:17.423Z,11.38
2018-01-21T05:59:44.906Z,10.00
2018-01-21T06:02:12.382Z,11.23
2018-01-21T06:04:39.860Z,9.33
2018-01-21T06:07:07.320Z,8.87
2018-01-21T06:09:34.777Z,7.57
2018-01-21T06:12:02.257Z,11.23
2018-01-21T06:14:30.505Z,10.13
2018-01-21T06:16:58.028Z,10.13
2018-01-21T06:19:27.392Z,9.43
2018-01-21T06:21:56.545Z,9.18
2018-01-21T06:24:24.084Z,9.93
2018-01-21T06:26:55.785Z,8.10
2018-01-21T06:29:23.317Z,8.67
2018-01-21T06:31:51.000Z,9.68
2018-01-21T06:34:19.888Z,11.30
2018-01-21T06:36:51.124Z,6.70
2018-01-21T06:39:18.596Z,8.43
2018-01-21T06:41:46.479Z,6.18
2018-01-21T06:44:14.728Z,7.00
2018-01-21T06:46:42.240Z,6.70
2018-01-21T06:49:09.675Z,7.12
2018-01-21T06:51:37.141Z,7.47
2018-01-21T06:54:05.780Z,6.95
2018-01-21T06:56:33.252Z,5.57
2018-01-21T06:59:00.712Z,6.77
2018-01-21T07:01:28.180Z,7.23
2018-01-21T07:03:55.628Z,9.93
2018-01-21T07:06:23.068Z,4.97
2018-01-21T07:08:55.952Z,7.40
2018-01-21T07:11:23.407Z,5.60
2018-01-21T07:13:56.355Z,4.94
2018-01-21T07:16:24.232Z,7.37
2018-01-21T07:18:51.676Z,4.10
2018-01-21T07:21:20.692Z,5.18
2018-01-21T07:23:49.006Z,5.35
2018-01-21T07:26:20.754Z,5.47
2018-01-21T07:28:48.200Z,6.50
2018-01-21T07:31:15.692Z,5.47
2018-01-21T07:33:43.153Z,5.43
2018-01-21T07:36:11.376Z,5.73
2018-01-21T07:38:40.284Z,5.82
2018-01-21T07:41:11.117Z,4.73
2018-01-21T07:43:38.577Z,4.33
2018-01-21T07:46:06.298Z,3.93
2018-01-21T07:48:36.564Z,5.35
2018-01-21T07:51:05.034Z,4.97
2018-01-21T07:53:32.620Z,4.53
2018-01-21T07:56:00.068Z,6.35
2018-01-21T07:58:29.961Z,6.95
2018-01-21T08:00:58.372Z,4.90
2018-01-21T08:03:26.329Z,5.00
2018-01-21T08:05:54.421Z,3.65
2018-01-21T08:08:22.653Z,2.95
2018-01-21T08:10:50.191Z,3.42
2018-01-21T08:13:19.667Z,4.53
2018-01-21T08:15:48.040Z,3.75
2018-01-21T08:18:15.487Z,3.03
2018-01-21T08:20:43.961Z,3.70
2018-01-21T08:23:12.030Z,5.03
2018-01-21T08:25:39.472Z,3.77
2018-01-21T08:28:06.963Z,7.40
2018-01-21T08:30:34.422Z,3.55
2018-01-21T08:33:01.869Z,3.22
2018-01-21T08:35:35.081Z,3.40
2018-01-21T08:38:08.928Z,4.43
2018-01-21T08:40:42.152Z,2.60
2018-01-21T08:43:09.846Z,3.75
2018-01-21T08:45:37.560Z,1.70
2018-01-21T08:48:06.588Z,2.20
2018-01-21T08:50:34.385Z,1.70
2018-01-21T08:53:01.847Z,2.37
2018-01-21T08:55:30.142Z,1.37
2018-01-21T08:57:57.612Z,1.20
2018-01-21T09:00:25.624Z,1.70
2018-01-21T09:02:54.672Z,1.23
2018-01-21T09:05:22.151Z,2.47
2018-01-21T09:07:49.600Z,1.85
2018-01-21T09:10:17.057Z,1.50
2018-01-21T09:12:48.202Z,1.80
2018-01-21T09:15:15.717Z,3.70
2018-01-21T09:17:44.317Z,1.33
2018-01-21T09:20:11.779Z,1.27
2018-01-21T09:22:39.233Z,2.20
2018-01-21T09:25:07.000Z,1.37
2018-01-21T09:27:34.454Z,0.90
2018-01-21T09:30:03.508Z,2.90
2018-01-21T09:32:30.905Z,2.10
2018-01-21T09:34:58.380Z,2.97
2018-01-21T09:37:25.861Z,1.50
2018-01-21T09:39:53.337Z,1.03
2018-01-21T09:42:21.680Z,2.70
2018-01-21T09:44:49.173Z,2.45
2018-01-21T09:47:16.776Z,1.30
2018-01-21T09:49:44.240Z,1.35
2018-01-21T09:52:11.701Z,1.10
2018-01-21T09:54:39.156Z,2.87
2018-01-21T09:57:06.635Z,1.50
2018-01-21T09:59:34.065Z,1.50
2018-01-21T10:02:01.854Z,1.00
2018-01-21T10:04:29.536Z,2.12
2018-01-21T10:06:57.772Z,1.93
2018-01-21T10:09:25.476Z,0.70
2018-01-21T10:11:52.928Z,0.90
2018-01-21T10:14:24.137Z,1.10
2018-01-21T10:16:51.634Z,1.20
2018-01-21T10:19:19.161Z,1.33
2018-01-21T10:21:46.639Z,0.98
2018-01-21T10:24:14.847Z,1.20
2018-01-21T10:26:42.316Z,1.80
2018-01-21T10:29:09.783Z,1.42
2018-01-21T10:31:37.265Z,1.23
2018-01-21T10:34:04.701Z,2.10
2018-01-21T10:36:33.109Z,1.30
2018-01-21T10:39:00.565Z,1.20
2018-01-21T10:41:28.036Z,1.67
2018-01-21T10:43:55.542Z,1.75
2018-01-21T10:46:22.991Z,1.70
2018-01-21T10:48:51.125Z,1.00
2018-01-21T10:51:19.369Z,2.67
2018-01-21T10:53:46.851Z,1.70
2018-01-21T10:56:14.313Z,1.50
2018-01-21T10:58:41.814Z,1.40
2018-01-21T11:01:09.276Z,1.83
2018-01-21T11:03:36.800Z,1.10
2018-01-21T11:06:04.364Z,2.13
2018-01-21T11:08:31.880Z,1.47
2018-01-21T11:10:59.331Z,2.50
2018-01-21T11:13:26.792Z,4.17
2018-01-21T11:15:55.270Z,2.45
2018-01-21T11:18:22.753Z,1.90
2018-01-21T11:20:51.028Z,1.77
2018-01-21T11:23:19.427Z,4.78
2018-01-21T11:25:46.996Z,1.92
2018-01-21T11:28:15.217Z,1.63
2018-01-21T11:30:47.322Z,2.73
2018-01-21T11:33:14.753Z,2.40
2018-01-21T11:35:43.783Z,2.13
2018-01-21T11:38:11.232Z,4.50
2018-01-21T11:40:39.404Z,2.58
2018-01-21T11:43:07.761Z,1.80
2018-01-21T11:45:38.107Z,2.40
2018-01-21T11:48:05.594Z,2.80
2018-01-21T11:50:33.049Z,2.27
2018-01-21T11:53:00.525Z,2.40
2018-01-21T11:55:28.804Z,1.77
2018-01-21T11:57:56.267Z,3.13
2018-01-21T12:00:23.743Z,2.27
2018-01-21T12:02:51.309Z,1.25
2018-01-21T12:05:19.085Z,2.73
2018-01-21T12:07:46.532Z,3.17
2018-01-21T12:10:13.999Z,3.03
2018-01-21T12:12:41.632Z,1.25
2018-01-21T12:15:09.209Z,2.17
2018-01-21T12:17:37.031Z,3.20
2018-01-21T12:20:04.526Z,1.87
2018-01-21T12:22:31.993Z,2.03
2018-01-21T12:24:59.566Z,2.33
2018-01-21T12:27:27.849Z,1.73
2018-01-21T12:29:56.970Z,2.20
2018-01-21T12:32:24.455Z,1.90
2018-01-21T12:34:52.840Z,3.70
2018-01-21T12:37:20.867Z,2.30
2018-01-21T12:39:48.354Z,5.33
2018-01-21T12:42:15.826Z,1.63
2018-01-21T12:44:43.316Z,2.73
2018-01-21T12:47:14.432Z,2.00
2018-01-21T12:49:41.882Z,2.32
2018-01-21T12:52:10.317Z,3.35
2018-01-21T12:54:37.777Z,2.83
2018-01-21T12:57:05.308Z,2.00
2018-01-21T12:59:33.521Z,2.15
2018-01-21T13:02:00.969Z,3.03
2018-01-21T13:04:30.305Z,4.28
2018-01-21T13:06:57.776Z,4.12
2018-01-21T13:09:25.257Z,1.60
2018-01-21T13:11:52.786Z,1.93
2018-01-21T13:14:20.216Z,3.03
2018-01-21T13:16:52.200Z,4.25
2018-01-21T13:19:19.656Z,2.40
2018-01-21T13:21:47.411Z,2.80
2018-01-21T13:24:14.863Z,2.53
2018-01-21T13:26:42.321Z,1.70
2018-01-21T13:29:09.804Z,3.03
2018-01-21T13:31:38.218Z,1.50
2018-01-21T13:34:05.673Z,2.80
2018-01-21T13:36:33.905Z,2.23
2018-01-21T13:39:01.466Z,2.47
2018-01-21T13:41:28.981Z,4.03
2018-01-21T13:43:57.372Z,2.27
2018-01-21T13:46:24.797Z,3.37
2018-01-21T13:48:52.319Z,4.73
2018-01-21T13:51:19.765Z,6.80
2018-01-21T13:53:47.220Z,3.50
2018-01-21T13:56:14.709Z,7.33
2018-01-21T13:58:42.165Z,2.83
2018-01-21T14:01:10.459Z,6.83
2018-01-21T14:03:37.918Z,3.10
2018-01-21T14:06:05.902Z,5.70
2018-01-21T14:08:33.483Z,4.27
2018-01-21T14:11:00.922Z,2.53
2018-01-21T14:13:28.500Z,4.50
2018-01-21T14:15:56.000Z,2.80
2018-01-21T14:18:25.117Z,3.63
2018-01-21T14:20:52.552Z,6.90
2018-01-21T14:23:20.117Z,2.93
2018-01-21T14:25:47.622Z,2.63
2018-01-21T14:28:15.076Z,4.28
2018-01-21T14:30:42.540Z,11.80
2018-01-21T14:33:13.522Z,3.33
2018-01-21T14:35:41.024Z,7.03
2018-01-21T14:38:09.629Z,9.70
2018-01-21T14:40:37.124Z,5.35
2018-01-21T14:43:04.656Z,3.90
2018-01-21T14:45:32.132Z,5.10
2018-01-21T14:47:59.604Z,4.40
2018-01-21T14:50:28.802Z,3.77
2018-01-21T14:52:56.242Z,5.07
2018-01-21T14:55:23.712Z,4.18
2018-01-21T14:57:51.217Z,7.45
2018-01-21T15:00:18.672Z,8.67
2018-01-21T15:02:46.178Z,3.22
2018-01-21T15:05:13.778Z,5.78
2018-01-21T15:07:43.048Z,4.10
2018-01-21T15:10:10.496Z,4.30
2018-01-21T15:12:37.981Z,4.87
2018-01-21T15:15:05.473Z,6.75
2018-01-21T15:17:33.011Z,6.60
2018-01-21T15:20:04.477Z,13.10
2018-01-21T15:22:31.982Z,5.83
2018-01-21T15:24:59.477Z,4.73
2018-01-21T15:27:26.996Z,6.15
2018-01-21T15:29:54.491Z,4.63
2018-01-21T15:32:22.785Z,13.63
2018-01-21T15:34:50.466Z,10.27
2018-01-21T15:37:18.136Z,3.55
2018-01-21T15:39:45.628Z,4.97
2018-01-21T15:42:13.099Z,6.50
2018-01-21T15:44:40.615Z,5.37
2018-01-21T15:47:08.069Z,8.93
2018-01-21T15:49:40.030Z,5.27
2018-01-21T15:52:07.476Z,5.80
2018-01-21T15:54:34.983Z,5.30
2018-01-21T15:57:02.538Z,4.23
2018-01-21T15:59:30.749Z,6.05
2018-01-21T16:01:58.236Z,4.87
2018-01-21T16:04:29.469Z,6.30
2018-01-21T16:06:56.975Z,4.70
2018-01-21T16:09:25.189Z,3.53
2018-01-21T16:11:52.666Z,5.17
2018-01-21T16:14:20.268Z,6.50
2018-01-21T16:16:49.389Z,11.70
2018-01-21T16:19:16.870Z,4.50
2018-01-21T16:21:44.379Z,4.60
2018-01-21T16:24:11.882Z,8.52
2018-01-21T16:26:39.488Z,7.40
2018-01-21T16:29:08.756Z,5.45
2018-01-21T16:31:36.267Z,7.80
2018-01-21T16:34:04.115Z,5.00
2018-01-21T16:36:31.576Z,11.63
2018-01-21T16:39:00.561Z,5.40
2018-01-21T16:41:28.008Z,18.27
2018-01-21T16:43:55.518Z,6.28
2018-01-21T16:46:23.116Z,7.07
2018-01-21T16:48:50.554Z,7.17
2018-01-21T16:51:18.103Z,5.20
2018-01-21T16:53:46.492Z,4.70
2018-01-21T16:56:14.080Z,9.63
2018-01-21T16:58:41.551Z,7.80
2018-01-21T17:01:08.997Z,24.30
2018-01-21T17:03:36.688Z,6.18
2018-01-21T17:06:04.156Z,10.27
2018-01-21T17:08:31.777Z,5.97
2018-01-21T17:10:59.335Z,8.23
2018-01-21T17:13:26.802Z,9.73
2018-01-21T17:15:55.201Z,6.40
2018-01-21T17:18:22.747Z,6.20
2018-01-21T17:20:50.977Z,7.20
2018-01-21T17:23:18.472Z,11.85
2018-01-21T17:25:45.943Z,7.80
2018-01-21T17:28:14.004Z,8.15
2018-01-21T17:30:41.500Z,13.73
2018-01-21T17:33:08.993Z,11.83
2018-01-21T17:35:36.485Z,6.60
2018-01-21T17:38:04.757Z,5.10
2018-01-21T17:40:32.269Z,6.87
2018-01-21T17:42:59.895Z,7.55
2018-01-21T17:45:27.953Z,6.12
2018-01-21T17:47:55.488Z,8.30
2018-01-21T17:50:23.120Z,7.87
2018-01-21T17:52:50.908Z,4.57
2018-01-21T17:55:18.404Z,7.47
2018-01-21T17:57:47.604Z,10.76
2018-01-21T18:00:15.048Z,8.36
2018-01-21T18:02:43.320Z,11.95
2018-01-21T18:05:11.671Z,8.95
2018-01-21T18:07:39.236Z,7.70
2018-01-21T18:10:06.721Z,9.32
2018-01-21T18:12:37.090Z,9.67
2018-01-21T18:15:04.565Z,8.90
2018-01-21T18:17:32.056Z,10.23
2018-01-21T18:19:59.576Z,10.57
2018-01-21T18:22:27.111Z,10.50
2018-01-21T18:24:55.498Z,8.32
2018-01-21T18:27:23.093Z,11.40
2018-01-21T18:29:50.713Z,10.43
2018-01-21T18:32:18.243Z,10.77
2018-01-21T18:34:45.775Z,12.50
2018-01-21T18:37:16.369Z,15.43
2018-01-21T18:39:43.823Z,12.70
2018-01-21T18:42:12.246Z,14.30
2018-01-21T18:44:40.091Z,13.90
2018-01-21T18:47:07.554Z,11.73
2018-01-21T18:49:36.415Z,15.80
2018-01-21T18:52:08.186Z,17.13
2018-01-21T18:54:35.670Z,15.13
2018-01-21T18:57:03.423Z,14.75
2018-01-21T18:59:31.044Z,12.05
2018-01-21T19:02:00.254Z,14.40
2018-01-21T19:04:27.869Z,12.32
2018-01-21T19:06:55.388Z,17.03
2018-01-21T19:09:27.919Z,47.20
2018-01-21T19:11:55.508Z,14.57
2018-01-21T19:14:23.079Z,18.00
2018-01-21T19:16:50.558Z,14.30
2018-01-21T19:19:19.005Z,14.48
2018-01-21T19:21:46.616Z,11.93
2018-01-21T19:24:14.188Z,13.63
2018-01-21T19:26:41.745Z,14.07
2018-01-21T19:29:09.351Z,22.23
2018-01-21T19:31:36.853Z,28.10
2018-01-21T19:34:04.589Z,16.57
2018-01-21T19:36:33.072Z,16.83
2018-01-21T19:39:06.208Z,19.53
2018-01-21T19:41:34.513Z,21.87
2018-01-21T19:44:04.476Z,18.67
2018-01-21T19:46:33.063Z,18.60
2018-01-21T19:49:03.674Z,16.07
2018-01-21T19:51:35.325Z,22.33
2018-01-21T19:54:03.162Z,17.67
2018-01-21T19:56:34.894Z,17.53
2018-01-21T19:59:02.471Z,22.93
2018-01-21T20:01:30.109Z,22.48
2018-01-21T20:03:59.962Z,22.20
2018-01-21T20:06:27.594Z,20.37
2018-01-21T20:08:55.633Z,22.00
2018-01-21T20:11:23.772Z,19.47
2018-01-21T20:13:52.056Z,17.05
2018-01-21T20:16:19.516Z,15.97
2018-01-21T20:18:47.096Z,21.10
2018-01-21T20:21:14.624Z,22.33
2018-01-21T20:23:50.498Z,24.35
2018-01-21T20:26:17.996Z,17.65
2018-01-21T20:28:45.525Z,18.63
2018-01-21T20:31:13.064Z,16.33
2018-01-21T20:33:40.685Z,21.33
2018-01-21T20:36:09.880Z,20.58
2018-01-21T20:38:37.375Z,20.70
2018-01-21T20:41:04.864Z,18.63
2018-01-21T20:43:32.559Z,19.60
2018-01-21T20:46:00.289Z,19.10
2018-01-21T20:48:28.006Z,20.17
2018-01-21T20:51:01.002Z,26.53
2018-01-21T20:53:34.184Z,18.37
2018-01-21T20:56:01.691Z,31.93
2018-01-21T20:58:29.189Z,20.33
2018-01-21T21:00:57.330Z,24.20
2018-01-21T21:03:24.912Z,23.93
2018-01-21T21:05:52.358Z,33.10
2018-01-21T21:08:19.885Z,17.08
2018-01-21T21:10:49.064Z,19.37
2018-01-21T21:13:16.591Z,23.83
2018-01-21T21:15:44.284Z,24.23
2018-01-21T21:18:11.772Z,19.30
2018-01-21T21:20:39.341Z,24.07
2018-01-21T21:23:07.292Z,26.48
2018-01-21T21:25:34.864Z,23.17
2018-01-21T21:28:02.494Z,26.67
2018-01-21T21:30:30.012Z,21.55
2018-01-21T21:32:57.499Z,21.48
2018-01-21T21:35:27.315Z,23.83
2018-01-21T21:37:54.798Z,26.70
2018-01-21T21:40:22.280Z,33.17
2018-01-21T21:42:49.772Z,23.57
2018-01-21T21:45:17.281Z,25.63
2018-01-21T21:47:44.985Z,38.40
2018-01-21T21:50:12.494Z,23.30
2018-01-21T21:52:40.519Z,25.90
2018-01-21T21:55:08.872Z,29.20
2018-01-21T21:57:36.486Z,26.33
2018-01-21T22:00:05.852Z,23.10
2018-01-21T22:02:33.375Z,25.67
2018-01-21T22:05:00.841Z,27.83
2018-01-21T22:07:28.382Z,27.00
2018-01-21T22:09:55.822Z,22.70
2018-01-21T22:12:25.039Z,24.27
2018-01-21T22:14:52.553Z,26.30
2018-01-21T22:17:20.041Z,25.83
2018-01-21T22:19:49.260Z,25.77
2018-01-21T22:22:16.753Z,21.67
2018-01-21T22:24:44.224Z,24.10
2018-01-21T22:27:12.441Z,24.20
2018-01-21T22:29:39.914Z,19.20
2018-01-21T22:32:08.317Z,20.73
2018-01-21T22:34:35.803Z,19.20
2018-01-21T22:37:03.250Z,20.83
2018-01-21T22:39:31.037Z,19.85
2018-01-21T22:41:58.487Z,21.90
2018-01-21T22:44:25.945Z,17.90
2018-01-21T22:46:53.426Z,19.80
2018-01-21T22:49:21.799Z,16.03
2018-01-21T22:51:49.516Z,19.42
2018-01-21T22:54:16.965Z,17.40
2018-01-21T22:56:47.732Z,28.50
2018-01-21T22:59:15.214Z,17.57
2018-01-21T23:01:43.614Z,16.27
2018-01-21T23:04:11.137Z,17.70
2018-01-21T23:06:39.105Z,18.00
2018-01-21T23:09:06.620Z,17.37
2018-01-21T23:11:34.077Z,20.33
2018-01-21T23:14:01.556Z,16.43
2018-01-21T23:16:29.328Z,14.43
2018-01-21T23:18:56.849Z,19.95
2018-01-21T23:21:24.456Z,14.90
2018-01-21T23:23:52.680Z,16.17
2018-01-21T23:26:20.168Z,15.20
2018-01-21T23:28:47.630Z,16.30
2018-01-21T23:31:15.912Z,15.63
2018-01-21T23:33:44.204Z,18.08
2018-01-21T23:36:11.689Z,17.25
2018-01-21T23:38:39.137Z,18.05
2018-01-21T23:41:07.157Z,16.17
2018-01-21T23:43:34.799Z,14.32
2018-01-21T23:46:02.224Z,15.55
2018-01-21T23:48:29.704Z,17.05
2018-01-21T23:50:57.166Z,13.20
2018-01-21T23:53:24.890Z,20.90
2018-01-21T23:55:52.669Z,20.67
2018-01-21T23:58:20.128Z,17.40
